Time;durP1;ratioP1;P1;durP2;ratioP2;P2;SDS_P1;SDS_P2;PMS_P1;PMS_P2;Temp;Humidity;BMP_temperature;BMP_pressure;BME280_temperature;BME280_humidity;BME280_pressure;Samples;Min_cycle;Max_cycle;Signal;HPM_P1;HPM_P2
2021/11/14 00:00:28;;;;;;;16.33;11.15;;;;;;;12.37;87.36;101632.34;5045385;28;20033;-80
2021/11/14 00:02:57;;;;;;;17.30;11.25;;;;;;;12.36;87.53;101630.72;5050070;28;20045;-79
2021/11/14 00:05:36;;;;;;;16.58;9.88;;;;;;;12.36;87.41;101642.66;5036169;28;20043;-80
2021/11/14 00:08:03;;;;;;;16.23;11.35;;;;;;;12.35;87.17;101638.25;5027128;28;21021;-80
2021/11/14 00:10:32;;;;;;;22.05;10.70;;;;;;;12.36;87.33;101636.28;5050921;28;20041;-80
2021/11/14 00:12:59;;;;;;;22.05;11.10;;;;;;;12.35;87.25;101626.31;5050974;28;20121;-79
2021/11/14 00:15:27;;;;;;;15.45;10.68;;;;;;;12.33;87.41;101615.56;5049535;28;20037;-79
2021/11/14 00:17:54;;;;;;;15.48;10.02;;;;;;;12.32;87.20;101608.38;5056814;28;20058;-79
2021/11/14 00:20:22;;;;;;;18.10;10.63;;;;;;;12.32;87.05;101613.94;5063535;28;20093;-80
2021/11/14 00:22:49;;;;;;;21.17;12.23;;;;;;;12.31;87.23;101625.38;5051865;28;20155;-79
2021/11/14 00:25:18;;;;;;;18.40;12.07;;;;;;;12.30;87.01;101621.78;5062069;28;20056;-80
2021/11/14 00:27:46;;;;;;;16.15;10.40;;;;;;;12.29;87.11;101617.38;5041216;28;20056;-79
2021/11/14 00:30:13;;;;;;;16.17;11.35;;;;;;;12.30;86.94;101619.00;5062069;28;20460;-79
2021/11/14 00:32:40;;;;;;;15.43;9.93;;;;;;;12.30;86.85;101618.19;5044514;28;20048;-80
2021/11/14 00:35:08;;;;;;;16.58;10.35;;;;;;;12.30;86.86;101624.56;5039611;28;20037;-80
2021/11/14 00:37:37;;;;;;;16.25;10.90;;;;;;;12.30;86.86;101620.97;5058295;28;20071;-79
2021/11/14 00:40:09;;;;;;;17.50;11.23;;;;;;;12.29;86.90;101630.44;5058089;28;20099;-80
2021/11/14 00:42:36;;;;;;;;;;;;;;;12.26;86.87;101631.13;5038214;28;20036;-79
2021/11/14 00:45:04;;;;;;;18.90;10.63;;;;;;;12.26;86.73;101636.69;5062471;28;20027;-79
2021/11/14 00:47:31;;;;;;;14.77;10.32;;;;;;;12.26;86.83;101634.69;5059106;28;20644;-80
2021/11/14 00:49:58;;;;;;;18.63;9.68;;;;;;;12.26;86.96;101639.47;5038482;28;20040;-80
2021/11/14 00:52:25;;;;;;;17.13;11.02;;;;;;;12.28;86.99;101640.75;5040388;28;20117;-79
2021/11/14 00:54:52;;;;;;;16.73;10.45;;;;;;;12.29;87.02;101644.31;5047288;28;20044;-80
2021/11/14 00:57:18;;;;;;;15.05;10.18;;;;;;;12.29;86.87;101645.13;5044029;28;20076;-80
2021/11/14 00:59:45;;;;;;;12.63;9.32;;;;;;;12.30;86.94;101646.78;5059366;28;20064;-80
2021/11/14 01:02:12;;;;;;;15.55;9.50;;;;;;;12.31;86.89;101642.81;5060317;28;20036;-80
2021/11/14 01:04:39;;;;;;;15.32;9.25;;;;;;;12.31;86.70;101653.94;5039236;28;20128;-80
2021/11/14 01:07:06;;;;;;;12.85;9.07;;;;;;;12.30;86.86;101635.66;5057599;28;20045;-80
2021/11/14 01:09:33;;;;;;;16.13;9.38;;;;;;;12.29;86.90;101639.59;5035735;28;20051;-80
2021/11/14 01:12:01;;;;;;;17.83;9.45;;;;;;;12.30;86.77;101638.44;5033528;28;20036;-80
2021/11/14 01:14:28;;;;;;;13.07;9.13;;;;;;;12.31;86.62;101636.47;5053801;28;20103;-80
2021/11/14 01:16:55;;;;;;;13.25;9.40;;;;;;;12.31;86.84;101637.28;5034670;28;20071;-80
2021/11/14 01:19:21;;;;;;;19.35;11.68;;;;;;;12.31;86.82;101631.72;5050191;28;20098;-80
2021/11/14 01:21:48;;;;;;;23.65;14.35;;;;;;;12.30;86.92;101632.88;5039342;28;20056;-80
2021/11/14 01:24:17;;;;;;;18.90;12.05;;;;;;;12.30;86.92;101629.28;5050143;28;20109;-80
2021/11/14 01:26:44;;;;;;;20.98;13.07;;;;;;;12.30;86.85;101637.63;5051777;28;21991;-79
2021/11/14 01:29:11;;;;;;;16.60;11.70;;;;;;;12.29;86.81;101635.97;5050252;28;20049;-80
2021/11/14 01:31:38;;;;;;;15.25;10.20;;;;;;;12.28;87.04;101637.97;5056199;28;20492;-79
2021/11/14 01:34:05;;;;;;;15.02;10.68;;;;;;;12.28;87.01;101643.53;5032164;28;20099;-80
2021/11/14 01:36:34;;;;;;;14.70;9.68;;;;;;;12.29;86.96;101642.34;5049622;28;20033;-80
2021/11/14 01:39:04;;;;;;;17.30;10.75;;;;;;;12.27;87.06;101630.78;5041867;28;20041;-79
2021/11/14 01:41:31;;;;;;;17.20;8.68;;;;;;;12.26;87.10;101623.59;5059077;28;20040;-80
2021/11/14 01:43:58;;;;;;;11.02;8.65;;;;;;;12.26;87.10;101626.38;5037058;28;20075;-80
2021/11/14 01:46:25;;;;;;;10.75;7.55;;;;;;;12.26;87.31;101629.13;5049490;28;20067;-80
2021/11/14 01:48:53;;;;;;;9.35;6.85;;;;;;;12.28;87.11;101632.41;5055117;28;20045;-80
2021/11/14 01:51:20;;;;;;;11.15;7.28;;;;;;;12.26;87.23;101629.13;5055757;28;20557;-80
2021/11/14 01:53:49;;;;;;;10.27;6.40;;;;;;;12.26;87.37;101618.03;5034157;28;20095;-80
2021/11/14 01:56:18;;;;;;;11.98;6.75;;;;;;;12.26;87.32;101623.59;5037641;28;20041;-79
2021/11/14 01:58:45;;;;;;;10.15;6.35;;;;;;;12.28;87.25;101621.31;5063552;28;20041;-80
2021/11/14 02:01:23;;;;;;;12.00;5.43;;;;;;;12.30;87.16;101632.06;5036833;28;20066;-79
2021/11/14 02:03:54;;;;;;;10.93;6.30;;;;;;;12.30;87.21;101635.66;5060022;28;20036;-80
2021/11/14 02:06:23;;;;;;;8.10;4.82;;;;;;;12.30;87.38;101630.09;5055766;28;20090;-80
2021/11/14 02:08:51;;;;;;;6.10;4.70;;;;;;;12.30;87.45;101632.88;5059711;28;20496;-79
2021/11/14 02:11:19;;;;;;;6.32;4.32;;;;;;;12.32;87.48;101625.03;5057688;28;20041;-80
2021/11/14 02:13:48;;;;;;;5.35;4.05;;;;;;;12.34;87.49;101631.06;5059554;28;20040;-80
2021/11/14 02:16:19;;;;;;;7.70;4.13;;;;;;;12.34;87.45;101636.59;5056979;28;20047;-80
2021/11/14 02:18:46;;;;;;;5.28;4.43;;;;;;;12.36;87.33;101634.34;5060519;28;20415;-80
2021/11/14 02:21:15;;;;;;;7.18;4.40;;;;;;;12.35;87.49;101629.91;5039929;28;20048;-80
2021/11/14 02:23:43;;;;;;;5.80;3.90;;;;;;;12.36;87.37;101633.50;5063267;28;22052;-80
2021/11/14 02:26:10;;;;;;;7.43;4.50;;;;;;;12.36;87.32;101645.44;5058606;28;20064;-80
2021/11/14 02:28:37;;;;;;;6.88;4.32;;;;;;;12.36;87.40;101637.09;5046728;28;20037;-80
2021/11/14 02:31:05;;;;;;;9.13;4.30;;;;;;;12.38;87.57;101643.13;5034742;28;20069;-80
2021/11/14 02:33:32;;;;;;;10.20;5.43;;;;;;;12.37;87.64;101643.44;5039285;28;20111;-80
2021/11/14 02:36:03;;;;;;;7.90;6.03;;;;;;;12.35;87.29;101641.03;5050440;28;20094;-80
2021/11/14 02:38:30;;;;;;;7.18;5.07;;;;;;;12.33;87.37;101643.34;5061274;28;20128;-79
2021/11/14 02:41:02;;;;;;;9.63;5.82;;;;;;;12.32;87.34;101643.66;5057885;28;22603;-79
2021/11/14 02:43:29;;;;;;;11.00;7.10;;;;;;;12.32;87.14;101643.66;5065705;28;20049;-80
2021/11/14 02:45:57;;;;;;;7.47;5.30;;;;;;;12.31;87.34;101648.38;5034673;28;20045;-80
2021/11/14 02:48:24;;;;;;;9.63;6.22;;;;;;;12.32;87.23;101650.03;5043355;28;20049;-80
2021/11/14 02:50:53;;;;;;;9.23;5.38;;;;;;;12.33;87.25;101651.66;5033467;28;20049;-80
2021/11/14 02:53:21;;;;;;;10.02;6.20;;;;;;;12.30;87.43;101646.78;5061737;28;20045;-80
2021/11/14 02:55:48;;;;;;;8.35;6.00;;;;;;;12.29;87.35;101656.25;5063182;28;20124;-80
2021/11/14 02:58:16;;;;;;;9.75;6.00;;;;;;;12.29;87.36;101650.69;5056118;28;20083;-80
2021/11/14 03:00:53;;;;;;;8.65;6.07;;;;;;;12.28;87.63;101651.84;5039063;28;20033;-80
2021/11/14 03:03:22;;;;;;;9.88;5.47;;;;;;;12.29;87.57;101650.69;5061086;28;20085;-80
2021/11/14 03:05:49;;;;;;;8.48;5.80;;;;;;;12.28;87.31;101646.31;5038972;28;20037;-80
2021/11/14 03:08:16;;;;;;;9.05;5.65;;;;;;;12.27;87.58;101653.00;5057743;28;20032;-80
2021/11/14 03:10:43;;;;;;;10.15;5.80;;;;;;;12.28;87.54;101649.06;5059226;28;20068;-80
2021/11/14 03:13:14;;;;;;;9.15;5.13;;;;;;;12.28;87.66;101656.59;5039295;28;20044;-80
2021/11/14 03:15:44;;;;;;;6.80;4.68;;;;;;;12.28;87.98;101654.63;5051067;28;20110;-80
2021/11/14 03:18:13;;;;;;;7.35;4.55;;;;;;;12.29;88.10;101649.88;5058544;28;20094;-80
2021/11/14 03:20:43;;;;;;;7.30;5.25;;;;;;;12.28;88.03;101654.63;5056154;28;20061;-79
2021/11/14 03:23:11;;;;;;;7.65;5.10;;;;;;;12.31;88.31;101659.50;5056895;28;20036;-80
2021/11/14 03:25:38;;;;;;;8.50;5.20;;;;;;;12.31;88.19;101653.94;5044342;28;20070;-80
2021/11/14 03:28:06;;;;;;;6.25;4.28;;;;;;;12.33;87.98;101656.41;5057254;28;20040;-80
2021/11/14 03:30:33;;;;;;;7.70;4.20;;;;;;;12.33;87.89;101654.44;5043070;28;20141;-80
2021/11/14 03:33:03;;;;;;;6.90;4.50;;;;;;;12.33;88.34;101651.66;5058663;28;20143;-80
2021/11/14 03:35:40;;;;;;;7.38;5.03;;;;;;;12.32;88.34;101650.03;5058396;28;20102;-79
2021/11/14 03:38:08;;;;;;;10.98;5.38;;;;;;;12.32;88.55;101647.25;5053905;28;20032;-80
2021/11/14 03:40:35;;;;;;;9.48;5.57;;;;;;;12.32;88.13;101650.03;5048665;28;20087;-80
2021/11/14 03:43:03;;;;;;;9.93;5.93;;;;;;;12.33;88.34;101646.09;5040952;28;20048;-80
2021/11/14 03:45:31;;;;;;;8.43;5.75;;;;;;;12.34;88.53;101641.38;5056293;28;20057;-80
2021/11/14 03:48:00;;;;;;;7.57;5.20;;;;;;;12.34;88.55;101642.16;5060294;28;22207;-80
2021/11/14 03:50:28;;;;;;;6.95;5.03;;;;;;;12.33;88.61;101643.34;5036543;28;20073;-80
2021/11/14 03:52:55;;;;;;;7.43;4.75;;;;;;;12.33;88.73;101646.09;5053762;28;20130;-80
2021/11/14 03:55:22;;;;;;;7.32;4.80;;;;;;;12.34;88.77;101650.50;5038823;28;20469;-79
2021/11/14 03:57:50;;;;;;;7.80;5.32;;;;;;;12.34;88.78;101647.72;5036895;28;20495;-78
2021/11/14 04:00:25;;;;;;;10.73;5.57;;;;;;;12.35;88.91;101646.56;5036480;28;20036;-80
2021/11/14 04:02:55;;;;;;;9.85;5.30;;;;;;;12.35;88.90;101643.81;5059037;28;20079;-80
2021/11/14 04:05:25;;;;;;;8.30;4.85;;;;;;;12.34;88.85;101650.50;5024809;28;20042;-80
2021/11/14 04:07:52;;;;;;;7.47;5.05;;;;;;;12.35;88.83;101645.75;5050495;28;20086;-80
2021/11/14 04:10:19;;;;;;;7.97;4.88;;;;;;;12.33;89.07;101632.22;5056319;28;20131;-80
2021/11/14 04:12:45;;;;;;;9.43;4.97;;;;;;;12.32;89.04;101643.66;5058634;28;20032;-80
2021/11/14 04:15:15;;;;;;;6.82;5.07;;;;;;;12.31;88.93;101648.38;5052235;28;20068;-80
2021/11/14 04:17:43;;;;;;;12.65;4.60;;;;;;;12.30;88.91;101652.31;5039112;28;20132;-79
2021/11/14 04:20:13;;;;;;;8.65;5.05;;;;;;;12.29;89.05;101653.47;5062892;28;20060;-80
2021/11/14 04:22:40;;;;;;;7.03;4.47;;;;;;;12.28;89.04;101662.97;5060042;28;20036;-80
2021/11/14 04:25:09;;;;;;;7.20;4.40;;;;;;;12.26;88.91;101662.47;5049090;28;20075;-80
2021/11/14 04:27:38;;;;;;;5.95;4.22;;;;;;;12.27;89.03;101666.88;5043165;28;20116;-80
2021/11/14 04:30:06;;;;;;;8.20;5.07;;;;;;;12.28;89.25;101670.47;5060629;28;20073;-80
2021/11/14 04:32:33;;;;;;;7.55;4.30;;;;;;;12.29;89.08;101660.97;5057877;28;20093;-80
2021/11/14 04:35:00;;;;;;;8.80;4.75;;;;;;;12.29;89.00;101672.91;5053927;28;20133;-80
2021/11/14 04:37:27;;;;;;;6.38;4.45;;;;;;;12.30;89.24;101677.31;5041996;28;20028;-80
2021/11/14 04:39:54;;;;;;;8.50;4.97;;;;;;;12.31;89.15;101676.16;5050767;28;20106;-80
2021/11/14 04:42:21;;;;;;;8.23;5.03;;;;;;;12.32;89.24;101665.88;5057385;28;20977;-79
2021/11/14 04:44:48;;;;;;;7.38;3.75;;;;;;;12.32;89.44;101679.75;5055884;28;20536;-80
2021/11/14 04:47:16;;;;;;;7.90;4.35;;;;;;;12.33;89.28;101670.28;5037140;28;20041;-79
2021/11/14 04:49:42;;;;;;;9.65;5.63;;;;;;;12.34;89.29;101685.81;5057062;28;20480;-80
2021/11/14 04:52:14;;;;;;;6.93;4.50;;;;;;;12.35;89.42;101679.09;5059157;28;20037;-80
2021/11/14 04:54:41;;;;;;;7.88;4.80;;;;;;;12.34;89.22;101681.03;5059819;28;20079;-80
2021/11/14 04:57:07;;;;;;;10.35;5.55;;;;;;;12.35;89.45;101693.78;5063472;28;20555;-80
2021/11/14 04:59:34;;;;;;;5.10;4.32;;;;;;;12.35;89.57;101692.97;5054661;28;20036;-80
2021/11/14 05:02:01;;;;;;;7.00;4.13;;;;;;;12.35;89.44;101688.22;5053394;28;20037;-80
2021/11/14 05:04:29;;;;;;;5.60;4.13;;;;;;;12.36;89.54;101689.06;5055065;28;20063;-80
2021/11/14 05:06:55;;;;;;;8.07;6.13;;;;;;;12.36;89.75;101689.88;5052057;28;20068;-81
2021/11/14 05:09:22;;;;;;;6.45;4.65;;;;;;;12.37;89.43;101690.66;5052517;28;20082;-79
2021/11/14 05:11:49;;;;;;;7.22;5.25;;;;;;;12.37;89.62;101697.03;5058316;28;20071;-80
2021/11/14 05:14:16;;;;;;;6.15;4.82;;;;;;;12.37;89.28;101697.03;5051485;28;20041;-79
2021/11/14 05:16:43;;;;;;;7.55;4.47;;;;;;;12.37;89.44;101705.38;5037263;28;20438;-79
2021/11/14 05:19:10;;;;;;;8.15;4.20;;;;;;;12.37;89.46;101699.81;5049655;28;20056;-79
2021/11/14 05:21:38;;;;;;;8.07;4.75;;;;;;;12.36;89.30;101695.44;5053053;28;20132;-79
2021/11/14 05:24:06;;;;;;;5.97;4.45;;;;;;;12.36;89.48;101697.38;5036297;28;20484;-80
2021/11/14 05:26:34;;;;;;;10.05;5.35;;;;;;;12.37;89.42;101697.03;5034432;28;20472;-80
2021/11/14 05:29:02;;;;;;;6.47;4.25;;;;;;;12.37;89.34;101708.16;5058067;28;20064;-80
2021/11/14 05:31:29;;;;;;;6.57;5.32;;;;;;;12.34;89.27;101711.59;5057048;28;20043;-79
2021/11/14 05:33:56;;;;;;;12.30;5.28;;;;;;;12.34;89.42;101711.59;5037163;28;20128;-80
2021/11/14 05:36:23;;;;;;;10.98;5.05;;;;;;;12.34;89.29;101714.38;5044726;28;20116;-80
2021/11/14 05:38:51;;;;;;;9.48;5.40;;;;;;;12.35;89.20;101707.66;5041929;28;20068;-80
2021/11/14 05:41:19;;;;;;;8.23;4.70;;;;;;;12.34;89.32;101708.00;5037597;28;20052;-79
2021/11/14 05:43:47;;;;;;;6.72;4.25;;;;;;;12.34;89.20;101706.03;5057384;28;20064;-80
2021/11/14 05:46:14;;;;;;;10.43;5.25;;;;;;;12.30;89.31;101701.47;5060598;28;20049;-80
2021/11/14 05:48:41;;;;;;;4.75;4.05;;;;;;;12.25;89.15;101705.28;5058540;28;20139;-80
2021/11/14 05:51:08;;;;;;;8.25;4.70;;;;;;;12.20;88.93;101702.69;5057007;28;20043;-80
2021/11/14 05:53:35;;;;;;;12.05;4.85;;;;;;;12.12;88.75;101700.75;5055943;28;20083;-80
2021/11/14 05:56:03;;;;;;;5.35;3.97;;;;;;;12.03;88.66;101706.31;5057259;28;20041;-79
2021/11/14 05:58:41;;;;;;;9.82;5.60;;;;;;;11.96;88.31;101691.34;5053965;28;20115;-80
2021/11/14 06:01:16;;;;;;;5.70;4.57;;;;;;;11.91;88.25;101699.84;5054981;28;20048;-80
2021/11/14 06:03:55;;;;;;;8.80;5.10;;;;;;;11.81;88.51;101695.44;5045098;28;20494;-80
2021/11/14 06:06:23;;;;;;;9.05;4.80;;;;;;;11.78;88.75;101700.84;5058296;28;20032;-80
2021/11/14 06:08:49;;;;;;;6.82;4.68;;;;;;;11.74;88.51;101705.41;5037074;28;20044;-79
2021/11/14 06:11:16;;;;;;;10.82;5.10;;;;;;;11.68;88.52;101710.28;5061180;28;20139;-79
2021/11/14 06:13:43;;;;;;;9.15;6.28;;;;;;;11.64;88.67;101712.13;5061309;28;21931;-80
2021/11/14 06:16:10;;;;;;;7.97;4.75;;;;;;;11.63;88.68;101702.97;5039608;28;20727;-80
2021/11/14 06:18:37;;;;;;;9.02;5.50;;;;;;;11.62;88.83;101693.00;5040983;28;20036;-80
2021/11/14 06:21:04;;;;;;;9.30;5.35;;;;;;;11.61;88.72;101710.81;5041445;28;20073;-79
2021/11/14 06:23:31;;;;;;;6.93;5.00;;;;;;;11.60;88.97;101703.63;5058893;28;20037;-80
2021/11/14 06:25:58;;;;;;;8.50;5.60;;;;;;;11.58;88.77;101699.56;5057367;28;20044;-80
2021/11/14 06:28:25;;;;;;;7.22;4.60;;;;;;;11.57;88.69;101712.59;5058417;28;20064;-80
2021/11/14 06:30:52;;;;;;;10.13;5.57;;;;;;;11.52;89.04;101718.31;5056253;28;20141;-79
2021/11/14 06:33:19;;;;;;;6.60;4.13;;;;;;;11.50;88.61;101723.38;5034307;28;20461;-80
2021/11/14 06:35:46;;;;;;;16.13;4.85;;;;;;;11.46;88.43;101727.94;5055420;28;20052;-80
2021/11/14 06:38:13;;;;;;;7.03;4.50;;;;;;;11.43;88.28;101736.13;5060191;28;20048;-80
2021/11/14 06:40:41;;;;;;;7.55;5.07;;;;;;;11.37;88.19;101729.09;5044226;28;20032;-80
2021/11/14 06:43:08;;;;;;;8.48;5.45;;;;;;;11.31;87.99;101728.44;5061316;28;20043;-79
2021/11/14 06:45:35;;;;;;;6.22;5.05;;;;;;;11.24;88.46;101736.44;5061505;28;20063;-79
2021/11/14 06:48:02;;;;;;;7.22;4.68;;;;;;;11.16;88.73;101737.25;5061999;28;20067;-80
2021/11/14 06:50:29;;;;;;;8.50;5.38;;;;;;;11.12;88.74;101733.47;5040451;28;20415;-80
2021/11/14 06:52:56;;;;;;;7.90;4.50;;;;;;;11.09;88.68;101731.38;5055929;28;20040;-79
2021/11/14 06:55:23;;;;;;;8.18;6.00;;;;;;;11.02;88.39;101744.88;5045166;28;20048;-80
2021/11/14 06:57:50;;;;;;;9.38;5.10;;;;;;;10.99;88.35;101740.81;5054516;28;21066;-80
2021/11/14 07:00:20;;;;;;;6.82;4.85;;;;;;;10.85;88.11;101748.47;5047247;28;20967;-80
2021/11/14 07:02:47;;;;;;;7.95;4.57;;;;;;;10.83;88.41;101744.34;5061447;28;20102;-80
2021/11/14 07:05:15;;;;;;;11.07;4.63;;;;;;;10.81;88.16;101741.09;5058482;28;21461;-80
2021/11/14 07:07:42;;;;;;;7.50;4.68;;;;;;;10.79;87.96;101748.91;5037617;28;20037;-79
2021/11/14 07:10:11;;;;;;;8.30;4.78;;;;;;;10.73;87.48;101758.50;5056752;28;20112;-80
2021/11/14 07:12:38;;;;;;;9.77;6.32;;;;;;;10.72;87.44;101756.91;5059329;28;20045;-80
2021/11/14 07:15:08;;;;;;;10.70;6.45;;;;;;;10.72;87.41;101759.66;5056639;28;20064;-79
2021/11/14 07:17:35;;;;;;;8.68;6.00;;;;;;;10.73;87.80;101758.50;5057491;28;20424;-80
2021/11/14 07:20:05;;;;;;;9.82;5.55;;;;;;;10.74;88.05;101760.16;5041342;28;20032;-79
2021/11/14 07:22:32;;;;;;;7.80;4.25;;;;;;;10.75;88.39;101750.72;5053236;28;20071;-80
2021/11/14 07:24:59;;;;;;;13.07;7.28;;;;;;;10.76;88.56;101752.31;5042994;28;20040;-80
2021/11/14 07:27:27;;;;;;;14.40;6.68;;;;;;;10.76;88.39;101755.91;5040482;28;20079;-80
2021/11/14 07:29:53;;;;;;;10.85;6.50;;;;;;;10.76;88.78;101755.91;5052909;28;20839;-80
2021/11/14 07:32:20;;;;;;;10.30;6.18;;;;;;;10.76;88.86;101763.41;5031230;28;20068;-79
2021/11/14 07:34:47;;;;;;;13.73;7.07;;;;;;;10.77;88.94;101767.81;5057391;28;20080;-80
2021/11/14 07:37:14;;;;;;;8.82;6.07;;;;;;;10.77;89.29;101773.38;5039553;28;20069;-80
2021/11/14 07:39:41;;;;;;;10.52;6.13;;;;;;;10.75;89.65;101768.13;5056943;28;20060;-80
2021/11/14 07:42:08;;;;;;;12.85;6.50;;;;;;;10.77;89.46;101770.59;5063530;28;20063;-80
2021/11/14 07:44:36;;;;;;;10.73;5.72;;;;;;;10.76;89.78;101766.19;5055518;28;20037;-79
2021/11/14 07:47:03;;;;;;;10.43;5.28;;;;;;;10.78;89.96;101774.97;5053514;28;20069;-80
2021/11/14 07:49:30;;;;;;;11.25;5.53;;;;;;;10.76;90.10;101777.25;5058063;28;20068;-79
2021/11/14 07:51:56;;;;;;;13.20;5.68;;;;;;;10.77;90.03;101776.13;5064801;28;20089;-80
2021/11/14 07:54:23;;;;;;;10.30;6.05;;;;;;;10.79;89.91;101765.53;5050611;28;20041;-77
2021/11/14 07:56:50;;;;;;;10.15;6.85;;;;;;;10.79;89.68;101773.84;5041435;28;20099;-78
2021/11/14 07:59:17;;;;;;;9.02;5.65;;;;;;;10.73;89.52;101773.19;5038871;28;20861;-78
2021/11/14 08:01:44;;;;;;;10.27;5.85;;;;;;;10.70;89.40;101781.31;5052665;28;20024;-77
2021/11/14 08:04:11;;;;;;;10.98;5.35;;;;;;;10.67;89.53;101771.69;5052631;28;20106;-77
2021/11/14 08:06:41;;;;;;;8.98;5.55;;;;;;;10.67;89.15;101776.44;5036703;28;20045;-77
2021/11/14 08:09:08;;;;;;;8.85;6.13;;;;;;;10.63;89.14;101787.31;5057520;28;20090;-77
2021/11/14 08:11:35;;;;;;;10.07;6.05;;;;;;;10.60;89.27;101787.13;5063373;28;20464;-77
2021/11/14 08:14:03;;;;;;;10.48;5.28;;;;;;;10.57;89.51;101796.06;5055116;28;20036;-77
2021/11/14 08:16:30;;;;;;;7.63;4.75;;;;;;;10.58;89.26;101794.94;5057846;28;20043;-77
2021/11/14 08:18:57;;;;;;;9.43;5.38;;;;;;;10.58;89.41;101800.50;5054953;28;20037;-76
2021/11/14 08:21:24;;;;;;;8.82;5.93;;;;;;;10.57;89.49;101812.69;5054274;28;20044;-77
2021/11/14 08:23:51;;;;;;;9.98;5.32;;;;;;;10.56;89.71;101811.06;5059469;28;20786;-76
2021/11/14 08:26:18;;;;;;;10.27;6.60;;;;;;;10.58;89.68;101812.38;5057114;28;20068;-77
2021/11/14 08:28:50;;;;;;;7.03;4.80;;;;;;;10.56;89.45;101808.31;5040509;28;20043;-78
2021/11/14 08:31:20;;;;;;;8.60;5.63;;;;;;;10.51;89.25;101816.75;5053385;28;20028;-77
2021/11/14 08:33:48;;;;;;;10.07;6.68;;;;;;;10.52;89.67;101812.84;5052569;28;20146;-77
2021/11/14 08:36:15;;;;;;;10.18;5.82;;;;;;;10.55;89.72;101817.75;5036983;28;20037;-77
2021/11/14 08:38:44;;;;;;;9.40;5.88;;;;;;;10.53;89.75;101814.47;5057128;28;20033;-78
2021/11/14 08:41:12;;;;;;;12.27;6.30;;;;;;;10.53;89.76;101818.06;5060988;28;20082;-78
2021/11/14 08:43:40;;;;;;;11.57;7.07;;;;;;;10.51;89.82;101823.09;5038325;28;20063;-78
2021/11/14 08:46:09;;;;;;;9.27;6.15;;;;;;;10.57;90.04;101821.00;5030997;28;20088;-77
2021/11/14 08:48:37;;;;;;;11.57;6.18;;;;;;;10.64;90.04;101821.38;5046917;28;20055;-78
2021/11/14 08:51:04;;;;;;;13.15;7.47;;;;;;;10.69;90.02;101824.00;5045676;28;21312;-77
2021/11/14 08:53:32;;;;;;;13.40;7.88;;;;;;;10.72;89.92;101813.06;5005491;28;20057;-78
2021/11/14 08:56:01;;;;;;;13.27;7.03;;;;;;;10.75;89.71;101814.41;5057327;28;20090;-77
2021/11/14 08:58:32;;;;;;;10.55;7.38;;;;;;;10.83;90.13;101824.69;5042027;28;20044;-77
2021/11/14 09:01:03;;;;;;;17.92;8.75;;;;;;;10.92;90.27;101814.47;5059698;28;20040;-77
2021/11/14 09:03:30;;;;;;;30.02;9.77;;;;;;;11.02;90.36;101816.94;5056222;28;20094;-77
2021/11/14 09:05:59;;;;;;;12.75;8.52;;;;;;;11.11;90.60;101806.69;5056434;28;20039;-77
2021/11/14 09:08:26;;;;;;;15.63;8.65;;;;;;;11.20;90.75;101815.81;5055658;28;20855;-77
2021/11/14 09:10:54;;;;;;;12.88;7.43;;;;;;;11.27;90.62;101815.38;5055888;28;20045;-77
2021/11/14 09:13:21;;;;;;;18.38;9.82;;;;;;;11.35;90.78;101825.66;5034477;28;20132;-77
2021/11/14 09:15:48;;;;;;;15.50;8.85;;;;;;;11.44;90.90;101812.59;5057842;28;20685;-77
2021/11/14 09:18:16;;;;;;;18.38;10.05;;;;;;;11.52;90.93;101814.56;5038746;28;20064;-77
2021/11/14 09:20:45;;;;;;;14.55;9.77;;;;;;;11.63;90.99;101810.31;5059592;28;20024;-77
2021/11/14 09:23:15;;;;;;;14.98;8.90;;;;;;;11.75;91.01;101818.84;5041167;28;20036;-77
2021/11/14 09:25:43;;;;;;;15.73;8.88;;;;;;;11.89;91.30;101826.97;5043104;28;20090;-77
2021/11/14 09:28:11;;;;;;;17.00;10.88;;;;;;;12.00;91.22;101822.72;5052873;28;20075;-77
2021/11/14 09:30:40;;;;;;;21.13;10.77;;;;;;;12.09;91.23;101823.53;5041745;28;20033;-82
2021/11/14 09:33:07;;;;;;;14.80;9.18;;;;;;;12.15;91.08;101817.47;5036569;28;20044;-81
2021/11/14 09:35:34;;;;;;;15.05;9.35;;;;;;;12.21;91.35;101818.13;5060103;28;20052;-81
2021/11/14 09:38:02;;;;;;;14.75;10.50;;;;;;;12.26;91.54;101822.72;5056033;28;20033;-80
2021/11/14 09:40:29;;;;;;;12.77;7.82;;;;;;;12.30;91.61;101830.03;5042911;28;20094;-80
2021/11/14 09:42:58;;;;;;;14.82;9.77;;;;;;;12.35;91.63;101818.75;5042295;28;20548;-79
2021/11/14 09:45:29;;;;;;;10.85;7.82;;;;;;;12.38;91.49;101823.66;5055260;28;20090;-80
2021/11/14 09:47:56;;;;;;;15.55;8.32;;;;;;;12.42;91.42;101824.59;5058560;28;20032;-81
2021/11/14 09:50:25;;;;;;;14.45;7.80;;;;;;;12.47;91.42;101824.41;5060712;28;20037;-81
2021/11/14 09:52:56;;;;;;;14.95;7.93;;;;;;;12.51;91.45;101827.34;5043104;28;20037;-80
2021/11/14 09:55:24;;;;;;;12.35;8.05;;;;;;;12.55;91.29;101829.13;5042855;28;20472;-81
2021/11/14 09:57:53;;;;;;;17.02;11.90;;;;;;;12.59;91.11;101827.34;5058491;28;20102;-80
2021/11/14 10:00:25;;;;;;;11.80;6.93;;;;;;;12.64;91.34;101818.81;5039651;28;20064;-80
2021/11/14 10:02:52;;;;;;;13.73;10.43;;;;;;;12.68;91.44;101825.31;5059800;28;20047;-81
2021/11/14 10:05:19;;;;;;;21.45;12.70;;;;;;;12.73;91.67;101824.34;5036274;28;20041;-81
2021/11/14 10:07:56;;;;;;;10.68;7.30;;;;;;;12.77;91.52;101823.34;5058684;28;20106;-81
2021/11/14 10:10:30;;;;;;;12.38;7.40;;;;;;;12.81;91.51;101829.03;5061002;28;20124;-80
2021/11/14 10:13:19;;;;;;;9.35;5.18;;;;;;;12.86;91.36;101820.53;5062014;28;20075;-81
2021/11/14 10:15:49;;;;;;;9.85;5.32;;;;;;;12.89;91.28;101827.38;5058601;28;20045;-81
2021/11/14 10:18:21;;;;;;;8.70;3.83;;;;;;;12.93;91.21;101822.75;5025180;28;20078;-82
2021/11/14 10:20:54;;;;;;;8.63;3.40;;;;;;;12.97;91.17;101826.50;5042036;28;20064;-80
2021/11/14 10:23:21;;;;;;;5.18;2.80;;;;;;;13.02;91.17;101835.47;5064416;28;20033;-81
2021/11/14 10:25:49;;;;;;;7.45;2.97;;;;;;;13.08;91.12;101836.13;5030751;28;20041;-81
2021/11/14 10:28:17;;;;;;;4.35;2.75;;;;;;;13.13;91.06;101835.94;5047806;28;20086;-83
2021/11/14 10:30:49;;;;;;;3.33;2.40;;;;;;;13.20;91.01;101836.22;5050569;28;20076;-81
2021/11/14 10:33:18;;;;;;;3.45;2.35;;;;;;;13.26;90.67;101841.22;5059064;28;20042;-81
2021/11/14 10:35:48;;;;;;;6.65;3.22;;;;;;;13.32;90.82;101844.63;5050274;28;20051;-80
2021/11/14 10:38:19;;;;;;;4.40;2.08;;;;;;;13.36;90.48;101846.44;5061833;28;20750;-82
2021/11/14 10:40:50;;;;;;;6.20;2.55;;;;;;;13.41;90.55;101849.00;5059801;28;20109;-82
2021/11/14 10:43:18;;;;;;;5.80;3.75;;;;;;;13.45;90.34;101853.91;5043428;28;20147;-81
2021/11/14 10:45:45;;;;;;;6.10;3.30;;;;;;;13.49;90.16;101844.53;5052720;28;20053;-79
2021/11/14 10:48:15;;;;;;;7.32;5.00;;;;;;;13.53;89.81;101845.47;5050344;28;20041;-79
2021/11/14 10:50:46;;;;;;;7.38;3.67;;;;;;;13.56;89.71;101853.16;5034400;28;20029;-79
2021/11/14 10:53:16;;;;;;;6.18;3.17;;;;;;;13.59;89.57;101855.25;5057737;28;20063;-79
2021/11/14 10:55:47;;;;;;;4.40;2.50;;;;;;;13.60;89.43;101845.78;5070163;28;20090;-78
2021/11/14 10:58:16;;;;;;;4.05;2.10;;;;;;;13.64;89.36;101846.72;5057292;28;20076;-78
2021/11/14 11:00:46;;;;;;;7.10;2.45;;;;;;;13.68;89.22;101853.25;5053736;28;20037;-78
2021/11/14 11:03:13;;;;;;;6.15;2.42;;;;;;;13.69;89.04;101846.50;5054629;28;20039;-78
2021/11/14 11:05:42;;;;;;;3.17;2.15;;;;;;;13.73;88.89;101844.69;5056967;28;20036;-78
2021/11/14 11:08:21;;;;;;;6.18;2.50;;;;;;;13.77;88.75;101848.41;5059509;28;20488;-79
2021/11/14 11:10:54;;;;;;;3.30;2.20;;;;;;;13.79;88.43;101851.66;5058324;28;20045;-79
2021/11/14 11:13:45;;;;;;;7.35;2.67;;;;;;;13.84;88.29;101845.91;5059357;28;20040;-78
2021/11/14 11:16:19;;;;;;;5.00;2.45;;;;;;;13.87;88.35;101839.63;5016195;28;20470;-78
2021/11/14 11:18:59;;;;;;;5.05;2.78;;;;;;;13.92;88.05;101846.97;5053065;28;20047;-79
2021/11/14 11:21:35;;;;;;;3.97;3.47;;;;;;;13.96;88.07;101854.31;5050957;28;20036;-78
2021/11/14 11:24:05;;;;;;;5.63;3.13;;;;;;;14.01;87.74;101854.09;5038954;28;20110;-79
2021/11/14 11:26:32;;;;;;;7.95;3.40;;;;;;;14.03;87.99;101860.13;5061330;28;20396;-79